createdAt,value
2018-06-11T00:00:15.866Z,66.83
2018-06-11T00:00:37.635Z,66.29
2018-06-11T00:00:59.379Z,65.62
2018-06-11T00:01:21.148Z,66.30
2018-06-11T00:01:42.904Z,66.06
2018-06-11T00:02:04.665Z,65.88
2018-06-11T00:02:26.436Z,66.08
2018-06-11T00:02:48.213Z,65.75
2018-06-11T00:03:09.979Z,66.36
2018-06-11T00:03:31.761Z,66.00
2018-06-11T00:03:53.547Z,66.18
2018-06-11T00:04:15.312Z,66.39
2018-06-11T00:04:37.079Z,66.77
2018-06-11T00:04:58.848Z,66.46
2018-06-11T00:05:20.622Z,65.88
2018-06-11T00:05:42.405Z,65.60
2018-06-11T00:06:04.178Z,66.65
2018-06-11T00:06:25.956Z,65.83
2018-06-11T00:06:47.734Z,66.07
2018-06-11T00:07:09.511Z,65.96
2018-06-11T00:07:31.263Z,65.68
2018-06-11T00:07:53.030Z,66.71
2018-06-11T00:08:14.783Z,66.05
2018-06-11T00:08:36.540Z,66.05
2018-06-11T00:08:58.311Z,66.70
2018-06-11T00:09:20.094Z,66.30
2018-06-11T00:09:41.866Z,66.60
2018-06-11T00:10:03.624Z,66.67
2018-06-11T00:10:25.398Z,66.15
2018-06-11T00:10:47.174Z,66.47
2018-06-11T00:11:08.939Z,66.09
2018-06-11T00:11:30.869Z,66.38
2018-06-11T00:11:52.636Z,65.79
2018-06-11T00:12:14.384Z,65.84
2018-06-11T00:12:36.153Z,65.87
2018-06-11T00:12:57.934Z,66.15
2018-06-11T00:13:19.706Z,66.33
2018-06-11T00:13:41.476Z,66.49
2018-06-11T00:14:03.251Z,65.51
2018-06-11T00:14:25.166Z,66.07
2018-06-11T00:14:46.938Z,66.25
2018-06-11T00:15:08.761Z,65.97
2018-06-11T00:15:30.530Z,66.63
2018-06-11T00:15:52.287Z,66.74
2018-06-11T00:16:14.054Z,65.96
2018-06-11T00:16:35.824Z,66.01
2018-06-11T00:16:57.581Z,66.75
2018-06-11T00:17:19.340Z,66.83
2018-06-11T00:17:41.119Z,66.10
2018-06-11T00:18:02.885Z,66.75
2018-06-11T00:18:24.638Z,66.67
2018-06-11T00:18:46.406Z,66.73
2018-06-11T00:19:08.168Z,66.91
2018-06-11T00:19:29.924Z,66.50
2018-06-11T00:19:51.691Z,66.42
2018-06-11T00:20:13.484Z,66.68
2018-06-11T00:20:35.240Z,66.81
2018-06-11T00:20:56.994Z,66.26
2018-06-11T00:21:18.769Z,66.63
2018-06-11T00:21:40.535Z,66.59
2018-06-11T00:22:02.307Z,66.79
2018-06-11T00:22:24.076Z,66.10
2018-06-11T00:22:45.867Z,66.14
2018-06-11T00:23:07.630Z,66.58
2018-06-11T00:23:29.416Z,66.10
2018-06-11T00:23:51.179Z,66.52
2018-06-11T00:24:12.959Z,66.09
2018-06-11T00:24:34.725Z,66.42
2018-06-11T00:24:56.504Z,66.84
2018-06-11T00:25:18.271Z,66.82
2018-06-11T00:25:40.034Z,66.09
2018-06-11T00:26:01.804Z,66.84
2018-06-11T00:26:23.555Z,66.75
2018-06-11T00:26:45.303Z,66.10
2018-06-11T00:27:07.085Z,66.66
2018-06-11T00:27:28.851Z,66.50
2018-06-11T00:27:50.619Z,66.19
2018-06-11T00:28:12.379Z,66.78
2018-06-11T00:28:34.147Z,65.93
2018-06-11T00:28:55.904Z,66.83
2018-06-11T00:29:17.669Z,66.97
2018-06-11T00:29:39.446Z,66.38
2018-06-11T00:30:01.212Z,66.13
2018-06-11T00:30:22.968Z,66.27
2018-06-11T00:30:44.732Z,66.29
2018-06-11T00:31:06.516Z,65.93
2018-06-11T00:31:28.276Z,66.26
2018-06-11T00:31:50.047Z,65.98
2018-06-11T00:32:11.833Z,66.14
2018-06-11T00:32:33.641Z,66.68
2018-06-11T00:32:55.420Z,65.86
2018-06-11T00:33:17.184Z,66.55
2018-06-11T00:33:38.944Z,66.16
2018-06-11T00:34:00.720Z,66.23
2018-06-11T00:34:22.463Z,66.50
2018-06-11T00:34:44.220Z,66.37
2018-06-11T00:35:06.111Z,66.38
2018-06-11T00:35:27.861Z,66.24
2018-06-11T00:35:49.610Z,65.71
2018-06-11T00:36:11.372Z,66.17
2018-06-11T00:36:33.126Z,66.76
2018-06-11T00:36:54.891Z,66.67
2018-06-11T00:37:16.647Z,66.75
2018-06-11T00:37:38.416Z,66.17
2018-06-11T00:38:00.207Z,66.90
2018-06-11T00:38:21.963Z,66.13
2018-06-11T00:38:43.729Z,66.52
2018-06-11T00:39:05.483Z,66.06
2018-06-11T00:39:27.238Z,66.25
2018-06-11T00:39:49.013Z,66.94
2018-06-11T00:40:10.777Z,66.59
2018-06-11T00:40:32.544Z,66.82
2018-06-11T00:40:54.321Z,66.72
2018-06-11T00:41:16.074Z,66.63
2018-06-11T00:41:37.835Z,66.21
2018-06-11T00:41:59.599Z,66.28
2018-06-11T00:42:21.384Z,66.76
2018-06-11T00:42:43.146Z,66.88
2018-06-11T00:43:04.937Z,66.12
2018-06-11T00:43:26.712Z,66.23
2018-06-11T00:43:48.467Z,66.53
2018-06-11T00:44:10.236Z,66.34
2018-06-11T00:44:31.983Z,66.11
2018-06-11T00:44:53.749Z,66.21
2018-06-11T00:45:15.505Z,66.26
2018-06-11T00:45:37.288Z,66.70
2018-06-11T00:45:59.058Z,66.14
2018-06-11T00:46:20.840Z,66.77
2018-06-11T00:46:42.608Z,66.48
2018-06-11T00:47:04.371Z,66.07
2018-06-11T00:47:26.132Z,66.67
2018-06-11T00:47:47.896Z,66.41
2018-06-11T00:48:09.679Z,66.51
2018-06-11T00:48:31.448Z,66.74
2018-06-11T00:48:53.208Z,66.68
2018-06-11T00:49:14.967Z,66.40
2018-06-11T00:49:36.732Z,66.80
2018-06-11T00:49:58.492Z,66.23
2018-06-11T00:50:20.242Z,66.33
2018-06-11T00:50:41.994Z,66.26
2018-06-11T00:51:03.771Z,65.82
2018-06-11T00:51:25.530Z,66.56
2018-06-11T00:51:47.299Z,66.06
2018-06-11T00:52:09.045Z,66.31
2018-06-11T00:52:30.813Z,66.56
2018-06-11T00:52:52.587Z,66.70
2018-06-11T00:53:14.359Z,66.71
2018-06-11T00:53:36.118Z,66.65
2018-06-11T00:53:57.876Z,66.47
2018-06-11T00:54:19.656Z,65.85
2018-06-11T00:54:41.411Z,66.73
2018-06-11T00:55:03.172Z,66.76
2018-06-11T00:55:24.921Z,66.00
2018-06-11T00:55:46.706Z,66.18
2018-06-11T00:56:08.492Z,65.95
2018-06-11T00:56:30.264Z,65.89
2018-06-11T00:56:52.038Z,66.50
2018-06-11T00:57:13.795Z,65.89
2018-06-11T00:57:35.574Z,66.73
2018-06-11T00:57:57.355Z,66.36
2018-06-11T00:58:19.125Z,66.17
2018-06-11T00:58:40.914Z,65.72
2018-06-11T00:59:02.692Z,66.46
2018-06-11T00:59:24.462Z,65.87
2018-06-11T00:59:46.227Z,65.91
2018-06-11T01:00:07.982Z,65.85
2018-06-11T01:00:29.733Z,66.48
2018-06-11T01:00:51.493Z,66.03
2018-06-11T01:01:13.253Z,66.17
2018-06-11T01:01:35.011Z,66.70
2018-06-11T01:01:56.765Z,66.71
2018-06-11T01:02:18.520Z,65.72
2018-06-11T01:02:40.282Z,66.22
2018-06-11T01:03:02.065Z,66.32
2018-06-11T01:03:23.825Z,66.80
2018-06-11T01:03:45.612Z,66.32
2018-06-11T01:04:07.358Z,66.50
2018-06-11T01:04:29.119Z,66.16
2018-06-11T01:04:50.880Z,66.05
2018-06-11T01:05:12.641Z,66.67
2018-06-11T01:05:34.406Z,66.53
2018-06-11T01:05:56.165Z,65.85
2018-06-11T01:06:17.926Z,65.87
2018-06-11T01:06:39.677Z,65.93
2018-06-11T01:07:01.441Z,66.52
2018-06-11T01:07:23.203Z,66.23
2018-06-11T01:07:44.969Z,66.01
2018-06-11T01:08:06.742Z,66.21
2018-06-11T01:08:28.498Z,66.05
2018-06-11T01:08:50.275Z,66.54
2018-06-11T01:09:12.055Z,66.18
2018-06-11T01:09:33.830Z,65.85
2018-06-11T01:09:55.603Z,66.63
2018-06-11T01:10:17.371Z,66.71
2018-06-11T01:10:39.129Z,66.46
2018-06-11T01:11:00.878Z,65.84
2018-06-11T01:11:22.638Z,66.65
2018-06-11T01:11:44.387Z,66.32
2018-06-11T01:12:06.167Z,65.85
2018-06-11T01:12:27.937Z,66.38
2018-06-11T01:12:49.706Z,65.87
2018-06-11T01:13:11.493Z,65.72
2018-06-11T01:13:33.258Z,66.03
2018-06-11T01:13:55.035Z,65.86
2018-06-11T01:14:16.782Z,66.50
2018-06-11T01:14:38.527Z,66.02
2018-06-11T01:15:00.315Z,66.58
2018-06-11T01:15:22.088Z,65.75
2018-06-11T01:15:43.841Z,66.46
2018-06-11T01:16:05.621Z,66.01
2018-06-11T01:16:27.383Z,65.74
2018-06-11T01:16:49.172Z,66.24
2018-06-11T01:17:10.926Z,66.27
2018-06-11T01:17:32.690Z,65.79
2018-06-11T01:17:54.457Z,65.71
2018-06-11T01:18:16.232Z,66.52
2018-06-11T01:18:38.014Z,66.36
2018-06-11T01:18:59.783Z,66.20
2018-06-11T01:19:21.554Z,65.85
2018-06-11T01:19:43.330Z,66.01
2018-06-11T01:20:05.104Z,66.03
2018-06-11T01:20:26.852Z,66.47
2018-06-11T01:20:48.633Z,65.99
2018-06-11T01:21:10.387Z,65.81
2018-06-11T01:21:32.140Z,66.22
2018-06-11T01:21:54.167Z,66.61
2018-06-11T01:22:15.931Z,66.60
2018-06-11T01:22:37.741Z,65.92
2018-06-11T01:22:59.518Z,66.30
2018-06-11T01:23:21.277Z,66.49
2018-06-11T01:23:43.039Z,65.66
2018-06-11T01:24:04.800Z,64.91
2018-06-11T01:24:26.571Z,64.78
2018-06-11T01:24:48.327Z,65.49
2018-06-11T01:25:10.074Z,64.48
2018-06-11T01:25:31.833Z,63.27
2018-06-11T01:25:53.576Z,64.34
2018-06-11T01:26:15.341Z,64.12
2018-06-11T01:26:37.098Z,64.08
2018-06-11T01:26:58.851Z,63.32
2018-06-11T01:27:20.619Z,63.15
2018-06-11T01:27:42.373Z,62.69
2018-06-11T01:28:04.129Z,62.52
2018-06-11T01:28:25.908Z,62.74
2018-06-11T01:28:47.698Z,62.15
2018-06-11T01:29:09.433Z,63.07
2018-06-11T01:29:31.207Z,62.47
2018-06-11T01:29:52.962Z,62.09
2018-06-11T01:30:14.742Z,61.48
2018-06-11T01:30:36.492Z,61.89
2018-06-11T01:30:58.247Z,61.65
2018-06-11T01:31:20.014Z,62.41
2018-06-11T01:31:41.760Z,61.83
2018-06-11T01:32:03.516Z,62.06
2018-06-11T01:32:25.282Z,62.57
2018-06-11T01:32:47.054Z,61.41
2018-06-11T01:33:08.802Z,61.14
2018-06-11T01:33:30.555Z,61.13
2018-06-11T01:33:52.322Z,61.49
2018-06-11T01:34:14.084Z,61.88
2018-06-11T01:34:35.826Z,61.49
2018-06-11T01:34:57.576Z,61.29
2018-06-11T01:35:19.334Z,61.16
2018-06-11T01:35:41.112Z,61.64
2018-06-11T01:36:03.192Z,61.59
2018-06-11T01:36:24.949Z,60.87
2018-06-11T01:36:46.720Z,60.75
2018-06-11T01:37:08.484Z,60.83
2018-06-11T01:37:30.238Z,61.02
2018-06-11T01:37:51.987Z,61.71
2018-06-11T01:38:13.774Z,60.53
2018-06-11T01:38:35.535Z,60.97
2018-06-11T01:38:57.304Z,60.75
2018-06-11T01:39:19.061Z,60.57
2018-06-11T01:39:40.819Z,60.58
2018-06-11T01:40:02.575Z,60.84
2018-06-11T01:40:24.342Z,61.43
2018-06-11T01:40:46.115Z,60.95
2018-06-11T01:41:07.872Z,60.85
2018-06-11T01:41:29.637Z,61.07
2018-06-11T01:41:51.379Z,61.02
2018-06-11T01:42:13.130Z,60.56
2018-06-11T01:42:34.891Z,60.72
2018-06-11T01:42:56.645Z,60.86
2018-06-11T01:43:18.430Z,61.11
2018-06-11T01:43:40.186Z,60.26
2018-06-11T01:44:01.942Z,60.05
2018-06-11T01:44:23.707Z,60.24
2018-06-11T01:44:45.465Z,59.87
2018-06-11T01:45:07.222Z,60.56
2018-06-11T01:45:28.978Z,59.99
2018-06-11T01:45:50.774Z,60.79
2018-06-11T01:46:12.521Z,59.77
2018-06-11T01:46:34.274Z,60.84
2018-06-11T01:46:56.019Z,60.33
2018-06-11T01:47:17.784Z,60.15
2018-06-11T01:47:39.541Z,60.94
2018-06-11T01:48:01.304Z,60.28
2018-06-11T01:48:23.087Z,60.23
2018-06-11T01:48:44.827Z,59.97
2018-06-11T01:49:06.591Z,60.13
2018-06-11T01:49:28.348Z,60.16
2018-06-11T01:49:50.101Z,60.49
2018-06-11T01:50:11.870Z,59.50
2018-06-11T01:50:33.629Z,59.41
2018-06-11T01:50:55.380Z,59.79
2018-06-11T01:51:17.151Z,59.35
2018-06-11T01:51:38.908Z,59.71
2018-06-11T01:52:00.824Z,60.49
2018-06-11T01:52:22.586Z,60.31
2018-06-11T01:52:44.352Z,60.08
2018-06-11T01:53:06.107Z,60.16
2018-06-11T01:53:27.898Z,60.30
2018-06-11T01:53:49.646Z,59.66
2018-06-11T01:54:11.491Z,60.39
2018-06-11T01:54:33.244Z,60.19
2018-06-11T01:54:55.004Z,59.95
2018-06-11T01:55:16.751Z,60.22
2018-06-11T01:55:38.645Z,60.30
2018-06-11T01:56:00.401Z,60.72
2018-06-11T01:56:22.152Z,60.22
2018-06-11T01:56:43.900Z,60.06
2018-06-11T01:57:05.800Z,59.90
2018-06-11T01:57:27.554Z,59.88
2018-06-11T01:57:49.323Z,60.24
2018-06-11T01:58:11.095Z,60.30
2018-06-11T01:58:32.849Z,60.38
2018-06-11T01:58:54.622Z,59.82
2018-06-11T01:59:16.402Z,59.81
2018-06-11T01:59:38.163Z,59.84
2018-06-11T01:59:59.927Z,59.69
2018-06-11T02:00:21.695Z,59.17
2018-06-11T02:00:43.479Z,59.64
2018-06-11T02:01:05.237Z,60.21
2018-06-11T02:01:26.987Z,59.72
2018-06-11T02:01:48.742Z,59.41
2018-06-11T02:02:10.644Z,60.22
2018-06-11T02:02:32.412Z,59.96
2018-06-11T02:02:54.175Z,59.46
2018-06-11T02:03:15.945Z,59.37
2018-06-11T02:03:37.706Z,59.79
2018-06-11T02:03:59.499Z,60.23
2018-06-11T02:04:21.272Z,59.19
2018-06-11T02:04:43.031Z,59.09
2018-06-11T02:05:04.783Z,59.47
2018-06-11T02:05:26.543Z,59.27
2018-06-11T02:05:48.538Z,60.06
2018-06-11T02:06:10.279Z,60.12
2018-06-11T02:06:32.053Z,59.20
2018-06-11T02:06:53.820Z,59.59
2018-06-11T02:07:15.588Z,60.14
2018-06-11T02:07:37.343Z,60.05
2018-06-11T02:07:59.110Z,59.60
2018-06-11T02:08:20.873Z,59.81
2018-06-11T02:08:42.643Z,59.19
2018-06-11T02:09:04.567Z,59.59
2018-06-11T02:09:26.354Z,59.68
2018-06-11T02:09:48.116Z,59.18
2018-06-11T02:10:09.874Z,60.00
2018-06-11T02:10:31.623Z,58.82
2018-06-11T02:10:53.388Z,59.81
2018-06-11T02:11:15.155Z,59.60
2018-06-11T02:11:36.921Z,59.25
2018-06-11T02:11:58.680Z,58.81
2018-06-11T02:12:20.453Z,59.15
2018-06-11T02:12:42.210Z,59.38
2018-06-11T02:13:03.967Z,58.96
2018-06-11T02:13:25.722Z,58.66
2018-06-11T02:13:47.499Z,58.63
2018-06-11T02:14:09.243Z,58.97
2018-06-11T02:14:31.032Z,59.01
2018-06-11T02:14:52.778Z,59.04
2018-06-11T02:15:14.527Z,58.77
2018-06-11T02:15:36.283Z,59.52
2018-06-11T02:15:58.030Z,59.06
2018-06-11T02:16:19.785Z,59.58
2018-06-11T02:16:41.541Z,59.88
2018-06-11T02:17:03.301Z,59.66
2018-06-11T02:17:25.065Z,59.02
2018-06-11T02:17:46.809Z,59.65
2018-06-11T02:18:08.561Z,59.35
2018-06-11T02:18:30.312Z,59.46
2018-06-11T02:18:52.074Z,59.76
2018-06-11T02:19:13.818Z,58.42
2018-06-11T02:19:35.565Z,59.25
2018-06-11T02:19:57.319Z,59.11
2018-06-11T02:20:19.062Z,58.74
2018-06-11T02:20:40.822Z,59.33
2018-06-11T02:21:02.569Z,58.87
2018-06-11T02:21:24.326Z,59.64
2018-06-11T02:21:46.087Z,58.53
2018-06-11T02:22:07.833Z,58.69
2018-06-11T02:22:29.585Z,58.59
2018-06-11T02:22:51.337Z,58.75
2018-06-11T02:23:13.099Z,58.27
2018-06-11T02:23:34.879Z,59.32
2018-06-11T02:23:56.638Z,58.79
2018-06-11T02:24:18.400Z,58.64
2018-06-11T02:24:40.155Z,59.35
2018-06-11T02:25:01.912Z,58.78
2018-06-11T02:25:23.675Z,58.69
2018-06-11T02:25:45.434Z,58.40
2018-06-11T02:26:07.187Z,58.89
2018-06-11T02:26:28.941Z,58.43
2018-06-11T02:26:50.704Z,59.24
2018-06-11T02:27:12.461Z,58.24
2018-06-11T02:27:34.221Z,58.37
2018-06-11T02:27:55.980Z,58.57
2018-06-11T02:28:17.736Z,58.49
2018-06-11T02:28:39.516Z,58.87
2018-06-11T02:29:01.275Z,58.36
2018-06-11T02:29:23.035Z,58.51
2018-06-11T02:29:44.796Z,58.17
2018-06-11T02:30:06.543Z,57.91
2018-06-11T02:30:28.328Z,57.68
2018-06-11T02:30:50.096Z,58.01
2018-06-11T02:31:11.868Z,58.73
2018-06-11T02:31:33.619Z,58.88
2018-06-11T02:31:55.384Z,58.64
2018-06-11T02:32:17.141Z,58.87
2018-06-11T02:32:38.915Z,58.42
2018-06-11T02:33:00.663Z,58.39
2018-06-11T02:33:22.425Z,57.69
2018-06-11T02:34:05.582Z,58.08
2018-06-11T02:34:27.368Z,58.19
2018-06-11T02:34:49.125Z,58.43
2018-06-11T02:35:10.885Z,57.59
2018-06-11T02:35:32.657Z,57.31
2018-06-11T02:35:54.432Z,58.48
2018-06-11T02:36:16.196Z,58.68
2018-06-11T02:36:37.956Z,58.06
2018-06-11T02:36:59.703Z,58.17
2018-06-11T02:37:21.463Z,57.80
2018-06-11T02:37:43.217Z,58.10
2018-06-11T02:38:04.987Z,57.69
2018-06-11T02:38:26.747Z,58.07
2018-06-11T02:38:48.525Z,57.30
2018-06-11T02:39:10.276Z,57.75
2018-06-11T02:39:32.035Z,57.96
2018-06-11T02:39:53.785Z,58.27
2018-06-11T02:40:15.562Z,57.46
2018-06-11T02:40:37.306Z,57.35
2018-06-11T02:40:59.078Z,57.65
2018-06-11T02:41:20.827Z,57.34
2018-06-11T02:41:42.595Z,57.62
2018-06-11T02:42:04.351Z,58.34
2018-06-11T02:42:26.131Z,58.42
2018-06-11T02:42:47.895Z,57.14
2018-06-11T02:43:09.661Z,57.26
2018-06-11T02:43:31.419Z,57.88
2018-06-11T02:43:53.182Z,57.47
2018-06-11T02:44:14.944Z,57.63
2018-06-11T02:44:36.696Z,57.15
2018-06-11T02:44:58.447Z,57.02
2018-06-11T02:45:20.206Z,57.52
2018-06-11T02:45:41.948Z,57.33
2018-06-11T02:46:03.719Z,57.05
2018-06-11T02:46:25.472Z,57.73
2018-06-11T02:46:47.236Z,57.68
2018-06-11T02:47:08.994Z,57.23
2018-06-11T02:47:30.756Z,57.52
2018-06-11T02:47:52.513Z,57.30
2018-06-11T02:48:14.276Z,57.74
2018-06-11T02:48:36.049Z,57.64
2018-06-11T02:48:57.862Z,56.89
2018-06-11T02:49:19.630Z,57.63
2018-06-11T02:49:41.400Z,57.31
2018-06-11T02:50:03.167Z,56.69
2018-06-11T02:50:24.929Z,56.69
2018-06-11T02:50:46.694Z,56.81
2018-06-11T02:51:08.456Z,57.06
2018-06-11T02:51:30.202Z,57.48
2018-06-11T02:51:51.945Z,57.20
2018-06-11T02:52:13.699Z,56.88
2018-06-11T02:52:35.454Z,56.92
2018-06-11T02:52:57.212Z,56.91
2018-06-11T02:53:18.982Z,56.96
2018-06-11T02:53:40.725Z,57.10
2018-06-11T02:54:02.513Z,57.10
2018-06-11T02:54:24.254Z,56.66
2018-06-11T02:54:46.026Z,57.22
2018-06-11T02:55:07.776Z,56.61
2018-06-11T02:55:29.523Z,57.04
2018-06-11T02:55:51.283Z,56.85
2018-06-11T02:56:13.040Z,56.31
2018-06-11T02:56:34.812Z,56.66
2018-06-11T02:56:56.564Z,56.50
2018-06-11T02:57:18.318Z,56.51
2018-06-11T02:57:40.079Z,56.64
2018-06-11T02:58:01.840Z,56.48
2018-06-11T02:58:23.624Z,56.85
2018-06-11T02:58:45.382Z,56.60
2018-06-11T02:59:07.156Z,56.85
2018-06-11T02:59:28.918Z,56.63
2018-06-11T02:59:50.669Z,56.08
2018-06-11T03:00:12.431Z,57.12
2018-06-11T03:00:34.213Z,56.55
2018-06-11T03:00:55.964Z,56.38
2018-06-11T03:01:17.724Z,56.09
2018-06-11T03:01:39.473Z,56.23
2018-06-11T03:02:01.218Z,56.54
2018-06-11T03:02:22.981Z,56.07
2018-06-11T03:02:44.747Z,56.39
2018-06-11T03:03:06.510Z,56.50
2018-06-11T03:03:28.280Z,56.73
2018-06-11T03:03:50.038Z,57.11
2018-06-11T03:04:11.841Z,56.91
2018-06-11T03:04:33.599Z,56.06
2018-06-11T03:04:55.357Z,57.00
2018-06-11T03:05:17.531Z,56.61
2018-06-11T03:05:39.278Z,56.27
2018-06-11T03:06:01.024Z,56.20
2018-06-11T03:06:22.778Z,56.63
2018-06-11T03:06:44.536Z,56.04
2018-06-11T03:07:06.300Z,56.45
2018-06-11T03:07:28.080Z,56.07
2018-06-11T03:07:49.845Z,56.50
2018-06-11T03:08:11.601Z,55.98
2018-06-11T03:08:33.367Z,56.44
2018-06-11T03:08:55.151Z,56.97
2018-06-11T03:09:16.918Z,57.06
2018-06-11T03:09:38.677Z,56.42
2018-06-11T03:10:00.451Z,55.81
2018-06-11T03:10:22.201Z,56.20
2018-06-11T03:10:43.959Z,56.28
2018-06-11T03:11:05.708Z,56.74
2018-06-11T03:11:27.463Z,56.60
2018-06-11T03:11:49.239Z,56.40
2018-06-11T03:12:11.000Z,55.88
2018-06-11T03:12:32.738Z,56.01
2018-06-11T03:12:54.535Z,56.63
2018-06-11T03:13:16.294Z,56.37
2018-06-11T03:13:38.050Z,55.72
2018-06-11T03:13:59.817Z,56.28
2018-06-11T03:14:21.570Z,56.22
2018-06-11T03:14:43.328Z,55.72
2018-06-11T03:15:05.081Z,56.80
2018-06-11T03:15:26.841Z,55.45
2018-06-11T03:15:48.607Z,55.83
2018-06-11T03:16:10.371Z,56.87
2018-06-11T03:16:32.131Z,56.17
2018-06-11T03:16:53.888Z,56.31
2018-06-11T03:17:15.632Z,56.04
2018-06-11T03:17:37.387Z,56.08
2018-06-11T03:17:59.139Z,56.29
2018-06-11T03:18:20.895Z,55.62
2018-06-11T03:18:42.654Z,55.54
2018-06-11T03:19:04.434Z,55.81
2018-06-11T03:19:26.189Z,55.67
2018-06-11T03:19:47.940Z,55.94
2018-06-11T03:20:09.711Z,55.68
2018-06-11T03:20:31.465Z,55.62
2018-06-11T03:20:53.216Z,56.09
2018-06-11T03:21:14.975Z,55.91
2018-06-11T03:21:36.726Z,55.19
2018-06-11T03:21:58.484Z,56.47
2018-06-11T03:22:20.234Z,55.65
2018-06-11T03:22:41.998Z,55.33
2018-06-11T03:23:03.759Z,55.41
2018-06-11T03:23:25.516Z,56.35
2018-06-11T03:23:47.296Z,55.42
2018-06-11T03:24:09.067Z,55.35
2018-06-11T03:24:30.807Z,55.89
2018-06-11T03:24:52.573Z,56.11
2018-06-11T03:25:14.335Z,56.17
2018-06-11T03:25:36.095Z,56.30
2018-06-11T03:25:57.856Z,55.55
2018-06-11T03:26:19.610Z,56.00
2018-06-11T03:26:41.363Z,55.60
2018-06-11T03:27:03.118Z,55.65
2018-06-11T03:27:24.888Z,56.23
2018-06-11T03:27:46.657Z,55.75
2018-06-11T03:28:08.416Z,55.32
2018-06-11T03:28:30.182Z,56.19
2018-06-11T03:28:51.936Z,55.99
2018-06-11T03:29:13.700Z,55.28
2018-06-11T03:29:35.462Z,55.84
2018-06-11T03:29:57.221Z,55.60
2018-06-11T03:30:18.980Z,55.73
2018-06-11T03:30:40.738Z,56.21
2018-06-11T03:31:02.504Z,56.04
2018-06-11T03:31:24.263Z,55.92
2018-06-11T03:31:46.024Z,55.50
2018-06-11T03:32:07.792Z,56.00
2018-06-11T03:32:29.561Z,56.22
2018-06-11T03:32:51.313Z,55.40
2018-06-11T03:33:13.077Z,55.23
2018-06-11T03:33:34.839Z,56.00
2018-06-11T03:33:56.582Z,54.87
2018-06-11T03:34:18.363Z,56.21
2018-06-11T03:34:40.121Z,55.37
2018-06-11T03:35:01.907Z,56.10
2018-06-11T03:35:23.623Z,56.14
2018-06-11T03:35:45.435Z,56.17
2018-06-11T03:36:07.173Z,55.34
2018-06-11T03:36:28.922Z,55.37
2018-06-11T03:36:50.667Z,55.91
2018-06-11T03:37:12.422Z,55.31
2018-06-11T03:37:34.165Z,56.32
2018-06-11T03:37:55.957Z,55.65
2018-06-11T03:38:17.708Z,56.01
2018-06-11T03:38:39.459Z,55.89
2018-06-11T03:39:01.213Z,56.16
2018-06-11T03:39:22.982Z,55.45
2018-06-11T03:39:44.740Z,55.21
2018-06-11T03:40:06.494Z,55.52
2018-06-11T03:40:28.248Z,55.61
2018-06-11T03:40:50.018Z,56.21
2018-06-11T03:41:11.788Z,55.01
2018-06-11T03:41:33.548Z,55.14
2018-06-11T03:41:55.298Z,55.25
2018-06-11T03:42:17.066Z,56.15
2018-06-11T03:42:38.824Z,56.05
2018-06-11T03:43:00.583Z,55.94
2018-06-11T03:43:22.338Z,55.58
2018-06-11T03:43:44.079Z,55.83
2018-06-11T03:44:05.830Z,55.85
2018-06-11T03:44:27.611Z,55.87
2018-06-11T03:44:49.372Z,55.66
2018-06-11T03:45:11.139Z,55.40
2018-06-11T03:45:32.908Z,54.85
2018-06-11T03:45:54.677Z,55.15
2018-06-11T03:46:16.446Z,54.91
2018-06-11T03:46:38.216Z,55.21
2018-06-11T03:46:59.970Z,55.73
2018-06-11T03:47:21.719Z,54.88
2018-06-11T03:47:43.468Z,55.66
2018-06-11T03:48:05.226Z,54.51
2018-06-11T03:48:26.985Z,55.34
2018-06-11T03:48:48.755Z,55.22
2018-06-11T03:49:10.535Z,55.08
2018-06-11T03:49:32.297Z,55.33
2018-06-11T03:49:54.059Z,55.09
2018-06-11T03:50:15.811Z,55.16
2018-06-11T03:50:37.589Z,55.66
2018-06-11T03:50:59.371Z,55.52
2018-06-11T03:51:21.122Z,54.75
2018-06-11T03:51:42.908Z,55.71
2018-06-11T03:52:04.675Z,55.72
2018-06-11T03:52:26.435Z,54.08
2018-06-11T03:52:48.205Z,55.47
2018-06-11T03:53:09.972Z,54.32
2018-06-11T03:53:31.727Z,55.16
2018-06-11T03:53:53.478Z,55.21
2018-06-11T03:54:15.242Z,54.99
2018-06-11T03:54:37.006Z,54.84
2018-06-11T03:54:58.760Z,54.69
2018-06-11T03:55:20.528Z,55.41
2018-06-11T03:55:42.298Z,55.54
2018-06-11T03:56:04.059Z,55.20
2018-06-11T03:56:25.824Z,54.74
2018-06-11T03:56:47.582Z,55.12
2018-06-11T03:57:09.342Z,54.92
2018-06-11T03:57:31.097Z,54.42
2018-06-11T03:57:52.842Z,55.27
2018-06-11T03:58:14.615Z,54.50
2018-06-11T03:58:36.372Z,54.64
2018-06-11T03:58:58.141Z,54.69
2018-06-11T03:59:19.896Z,54.53
2018-06-11T03:59:41.663Z,54.66
2018-06-11T04:00:03.429Z,55.46
2018-06-11T04:00:25.182Z,54.60
2018-06-11T04:00:46.985Z,55.04
2018-06-11T04:01:08.716Z,54.18
2018-06-11T04:01:30.467Z,54.61
2018-06-11T04:01:52.227Z,55.09
2018-06-11T04:02:13.983Z,55.34
2018-06-11T04:02:35.791Z,54.65
2018-06-11T04:02:57.542Z,54.56
2018-06-11T04:03:19.296Z,54.66
2018-06-11T04:03:41.059Z,54.96
2018-06-11T04:04:02.807Z,54.63
2018-06-11T04:04:24.587Z,54.78
2018-06-11T04:04:46.334Z,54.95
2018-06-11T04:05:08.095Z,54.44
2018-06-11T04:05:29.863Z,54.66
2018-06-11T04:05:51.624Z,53.65
2018-06-11T04:06:13.378Z,54.50
2018-06-11T04:06:35.141Z,53.90
2018-06-11T04:07:06.504Z,54.89
2018-06-11T04:07:28.264Z,54.74
2018-06-11T04:07:50.016Z,54.35
2018-06-11T04:08:11.763Z,54.07
2018-06-11T04:08:33.530Z,54.68
2018-06-11T04:08:55.283Z,54.38
2018-06-11T04:09:17.038Z,54.99
2018-06-11T04:09:38.807Z,55.02
2018-06-11T04:10:00.579Z,54.56
2018-06-11T04:10:22.330Z,53.90
2018-06-11T04:10:44.139Z,54.41
2018-06-11T04:11:05.950Z,54.63
2018-06-11T04:11:27.656Z,54.03
2018-06-11T04:11:49.419Z,54.18
2018-06-11T04:12:11.179Z,54.51
2018-06-11T04:12:32.944Z,54.81
2018-06-11T04:12:54.696Z,54.66
2018-06-11T04:13:16.496Z,53.54
2018-06-11T04:13:38.266Z,54.29
2018-06-11T04:14:00.012Z,54.22
2018-06-11T04:14:21.804Z,54.01
2018-06-11T04:14:43.567Z,54.37
2018-06-11T04:15:05.344Z,54.75
2018-06-11T04:15:27.105Z,53.85
2018-06-11T04:15:48.864Z,54.03
2018-06-11T04:16:10.626Z,54.49
2018-06-11T04:16:32.396Z,54.48
2018-06-11T04:16:54.164Z,54.41
2018-06-11T04:17:15.935Z,54.20
2018-06-11T04:17:37.696Z,54.19
2018-06-11T04:17:59.453Z,54.61
2018-06-11T04:18:21.216Z,54.36
2018-06-11T04:18:42.999Z,54.40
2018-06-11T04:19:04.762Z,55.10
2018-06-11T04:19:26.542Z,54.33
2018-06-11T04:19:48.307Z,54.90
2018-06-11T04:20:10.067Z,55.08
2018-06-11T04:20:31.827Z,54.44
2018-06-11T04:20:53.579Z,54.09
2018-06-11T04:21:15.332Z,54.79
2018-06-11T04:21:37.109Z,54.66
2018-06-11T04:21:58.873Z,54.35
2018-06-11T04:22:20.640Z,54.78
2018-06-11T04:22:42.435Z,53.74
2018-06-11T04:23:04.193Z,55.03
2018-06-11T04:23:25.939Z,54.49
2018-06-11T04:23:47.696Z,54.32
2018-06-11T04:24:09.457Z,54.53
2018-06-11T04:24:31.236Z,54.11
2018-06-11T04:24:52.986Z,54.29
2018-06-11T04:25:14.744Z,54.36
2018-06-11T04:25:36.495Z,54.54
2018-06-11T04:25:58.238Z,54.23
2018-06-11T04:26:19.986Z,54.44
2018-06-11T04:27:09.865Z,53.97
2018-06-11T04:27:31.623Z,53.92
2018-06-11T04:27:53.380Z,53.76
2018-06-11T04:28:15.145Z,53.95
2018-06-11T04:28:36.900Z,54.18
2018-06-11T04:28:58.668Z,53.94
2018-06-11T04:29:20.419Z,54.24
2018-06-11T04:29:42.191Z,54.28
2018-06-11T04:30:03.971Z,54.66
2018-06-11T04:30:25.722Z,54.35
2018-06-11T04:30:47.475Z,54.81
2018-06-11T04:31:09.237Z,53.67
2018-06-11T04:31:31.424Z,54.55
2018-06-11T04:31:53.193Z,55.15
2018-06-11T04:32:14.960Z,54.59
2018-06-11T04:32:36.718Z,54.37
2018-06-11T04:32:58.481Z,54.33
2018-06-11T04:33:20.230Z,54.87
2018-06-11T04:33:41.995Z,54.62
2018-06-11T04:34:03.747Z,54.92
2018-06-11T04:34:25.518Z,53.98
2018-06-11T04:34:47.309Z,55.02
2018-06-11T04:35:09.092Z,54.78
2018-06-11T04:35:30.904Z,54.19
2018-06-11T04:35:52.660Z,54.70
2018-06-11T04:36:14.423Z,54.81
2018-06-11T04:36:36.179Z,54.17
2018-06-11T04:36:57.950Z,54.70
2018-06-11T04:37:19.703Z,54.46
2018-06-11T04:37:41.460Z,54.28
2018-06-11T04:38:03.220Z,54.16
2018-06-11T04:38:24.988Z,54.10
2018-06-11T04:38:46.741Z,54.94
2018-06-11T04:39:08.528Z,54.57
2018-06-11T04:39:30.266Z,54.31
2018-06-11T04:39:52.019Z,54.75
2018-06-11T04:40:13.764Z,54.71
2018-06-11T04:40:35.518Z,54.27
2018-06-11T04:40:57.273Z,54.61
2018-06-11T04:41:19.039Z,54.70